createdAt,value
2023-03-07T00:00:16.449Z,-0.65
2023-03-07T00:02:44.296Z,-0.73
2023-03-07T00:05:12.579Z,-0.75
2023-03-07T00:07:39.673Z,-0.81
2023-03-07T00:10:07.226Z,-0.85
2023-03-07T00:12:34.552Z,-0.88
2023-03-07T00:15:01.780Z,-0.96
2023-03-07T00:17:29.013Z,-1.07
2023-03-07T00:19:56.231Z,-1.15
2023-03-07T00:22:23.586Z,-1.08
2023-03-07T00:24:50.614Z,-1.10
2023-03-07T00:27:17.912Z,-1.22
2023-03-07T00:29:45.207Z,-1.15
2023-03-07T00:32:12.262Z,-1.23
2023-03-07T00:34:39.587Z,-1.30
2023-03-07T00:37:06.641Z,-1.27
2023-03-07T00:42:01.039Z,-1.32
2023-03-07T00:44:30.332Z,-1.33
2023-03-07T00:46:57.583Z,-1.33
2023-03-07T00:49:24.816Z,-1.38
2023-03-07T00:51:52.359Z,-1.40
2023-03-07T00:54:19.597Z,-1.41
2023-03-07T00:56:46.922Z,-1.45
2023-03-07T00:59:15.382Z,-1.39
2023-03-07T01:01:42.982Z,-1.42
2023-03-07T01:04:10.776Z,-1.41
2023-03-07T01:06:38.260Z,-1.32
2023-03-07T01:09:08.563Z,-1.32
2023-03-07T01:11:37.460Z,-1.34
2023-03-07T01:14:06.630Z,-1.34
2023-03-07T01:16:38.150Z,-1.32
2023-03-07T01:19:08.745Z,-1.21
2023-03-07T01:21:38.589Z,-1.12
2023-03-07T01:24:07.788Z,-1.10
2023-03-07T01:26:35.431Z,-0.97
2023-03-07T01:29:05.515Z,-0.89
2023-03-07T01:31:35.674Z,-0.89
2023-03-07T01:34:03.864Z,-0.81
2023-03-07T01:36:35.229Z,-0.77
2023-03-07T01:39:17.142Z,-0.68
2023-03-07T01:41:51.543Z,-0.63
2023-03-07T01:44:25.951Z,-0.60
2023-03-07T01:47:00.695Z,-0.62
2023-03-07T01:49:41.078Z,-0.64
2023-03-07T01:52:21.216Z,-0.66
2023-03-07T01:54:58.757Z,-0.67
2023-03-07T01:57:33.797Z,-0.71
2023-03-07T02:00:08.403Z,-0.73
2023-03-07T02:02:44.175Z,-0.67
2023-03-07T02:05:22.443Z,-0.64
2023-03-07T02:07:51.207Z,-0.61
2023-03-07T02:10:23.618Z,-0.59
2023-03-07T02:12:53.568Z,-0.53
2023-03-07T02:15:21.152Z,-0.52
2023-03-07T02:17:48.715Z,-0.47
2023-03-07T02:20:42.731Z,-0.41
2023-03-07T02:23:37.111Z,-0.37
2023-03-07T02:26:13.959Z,-0.39
2023-03-07T02:28:42.877Z,-0.44
2023-03-07T02:31:11.901Z,-0.34
2023-03-07T02:33:40.553Z,-0.29
2023-03-07T02:36:15.180Z,-0.34
2023-03-07T02:38:51.284Z,-0.35
2023-03-07T02:41:22.696Z,-0.28
2023-03-07T02:43:50.672Z,-0.32
2023-03-07T02:46:18.068Z,-0.43
2023-03-07T02:48:45.284Z,-0.46
2023-03-07T02:51:14.014Z,-0.41
2023-03-07T02:53:43.092Z,-0.43
2023-03-07T02:56:10.257Z,-0.49
2023-03-07T02:58:37.491Z,-0.46
2023-03-07T03:01:04.633Z,-0.49
2023-03-07T03:03:31.680Z,-0.52
2023-03-07T03:05:58.579Z,-0.52
2023-03-07T03:08:25.794Z,-0.54
2023-03-07T03:10:54.698Z,-0.47
2023-03-07T03:13:24.312Z,-0.47
2023-03-07T03:15:57.064Z,-0.48
2023-03-07T03:18:27.621Z,-0.45
2023-03-07T03:20:54.875Z,-0.45
2023-03-07T03:23:22.425Z,-0.40
2023-03-07T03:26:01.295Z,-0.37
2023-03-07T03:28:32.069Z,-0.34
2023-03-07T03:31:02.027Z,-0.28
2023-03-07T03:33:31.067Z,-0.20
2023-03-07T03:36:00.344Z,-0.23
2023-03-07T03:38:27.977Z,-0.20
2023-03-07T03:40:56.549Z,-0.13
2023-03-07T03:43:23.536Z,-0.05
2023-03-07T03:45:55.610Z,0.04
2023-03-07T03:48:24.844Z,0.10
2023-03-07T03:50:59.886Z,0.16
2023-03-07T03:53:27.115Z,0.18
2023-03-07T03:56:08.528Z,0.29
2023-03-07T03:58:36.222Z,0.36
2023-03-07T04:01:05.956Z,0.41
2023-03-07T04:03:34.426Z,0.41
2023-03-07T04:06:03.501Z,0.46
2023-03-07T04:08:32.066Z,0.49
2023-03-07T04:10:59.780Z,0.52
2023-03-07T04:13:27.340Z,0.56
2023-03-07T04:15:54.914Z,0.65
2023-03-07T04:18:23.209Z,0.66
2023-03-07T04:20:51.966Z,0.67
2023-03-07T04:23:21.933Z,0.68
2023-03-07T04:25:50.217Z,0.75
2023-03-07T04:28:19.050Z,0.80
2023-03-07T04:30:46.287Z,0.91
2023-03-07T04:33:15.583Z,0.84
2023-03-07T04:35:43.316Z,0.97
2023-03-07T04:38:11.111Z,0.88
2023-03-07T04:40:38.454Z,0.78
2023-03-07T04:43:06.450Z,0.71
2023-03-07T04:45:37.466Z,0.67
2023-03-07T04:48:05.052Z,0.64
2023-03-07T04:50:34.196Z,0.71
2023-03-07T04:53:01.441Z,0.72
2023-03-07T04:55:28.745Z,0.64
2023-03-07T04:57:57.760Z,0.80
2023-03-07T05:00:25.596Z,0.77
2023-03-07T05:02:56.777Z,0.79
2023-03-07T05:05:24.501Z,0.87
2023-03-07T05:07:51.728Z,0.85
2023-03-07T05:10:19.429Z,0.88
2023-03-07T05:12:46.919Z,0.81
2023-03-07T05:15:14.179Z,0.76
2023-03-07T05:17:41.624Z,0.71
2023-03-07T05:20:11.257Z,0.70
2023-03-07T05:22:38.294Z,0.57
2023-03-07T05:25:07.035Z,0.56
2023-03-07T05:27:35.552Z,0.52
2023-03-07T05:30:03.062Z,0.43
2023-03-07T05:32:30.783Z,0.43
2023-03-07T05:34:58.749Z,0.42
2023-03-07T05:37:26.089Z,0.41
2023-03-07T05:39:54.025Z,0.35
2023-03-07T05:42:21.331Z,0.46
2023-03-07T05:44:49.407Z,0.49
2023-03-07T05:47:16.766Z,0.45
2023-03-07T05:49:44.514Z,0.42
2023-03-07T05:52:13.607Z,0.44
2023-03-07T05:54:41.277Z,0.53
2023-03-07T05:57:09.155Z,0.59
2023-03-07T05:59:36.641Z,0.52
2023-03-07T06:02:03.979Z,0.45
2023-03-07T06:04:31.265Z,0.47
2023-03-07T06:06:59.842Z,0.52
2023-03-07T06:09:28.353Z,0.52
2023-03-07T06:11:58.112Z,0.52
2023-03-07T06:14:28.441Z,0.57
2023-03-07T06:16:55.626Z,0.55
2023-03-07T06:19:23.155Z,0.63
2023-03-07T06:21:51.932Z,0.65
2023-03-07T06:24:20.033Z,0.61
2023-03-07T06:26:47.852Z,0.65
2023-03-07T06:29:16.220Z,0.69
2023-03-07T06:31:43.562Z,0.80
2023-03-07T06:34:11.448Z,0.82
2023-03-07T06:36:40.483Z,0.90
2023-03-07T06:39:07.909Z,0.89
2023-03-07T06:41:36.093Z,0.87
2023-03-07T06:44:04.753Z,0.90
2023-03-07T06:46:33.288Z,0.94
2023-03-07T06:49:05.548Z,1.06
2023-03-07T06:51:34.180Z,1.08
2023-03-07T06:54:02.811Z,1.19
2023-03-07T06:56:31.456Z,1.23
2023-03-07T06:58:59.625Z,1.29
2023-03-07T07:01:26.764Z,1.42
2023-03-07T07:03:57.143Z,1.48
2023-03-07T07:06:25.401Z,1.45
2023-03-07T07:08:57.647Z,1.47
2023-03-07T07:11:29.098Z,1.45
2023-03-07T07:13:57.051Z,1.45
2023-03-07T07:16:24.733Z,1.51
2023-03-07T07:18:52.714Z,1.54
2023-03-07T07:21:20.529Z,1.59
2023-03-07T07:23:48.312Z,1.61
2023-03-07T07:26:15.754Z,1.71
2023-03-07T07:28:46.038Z,1.80
2023-03-07T07:31:13.855Z,1.85
2023-03-07T07:33:41.174Z,1.88
2023-03-07T07:36:09.772Z,2.14
2023-03-07T07:38:37.523Z,2.39
2023-03-07T07:41:05.217Z,2.72
2023-03-07T07:43:33.496Z,3.09
2023-03-07T07:46:10.760Z,3.46
2023-03-07T07:48:38.766Z,3.81
2023-03-07T07:51:06.724Z,4.06
2023-03-07T07:53:36.912Z,4.24
2023-03-07T07:56:04.848Z,4.29
2023-03-07T07:58:32.272Z,4.37
2023-03-07T08:01:01.453Z,4.46
2023-03-07T08:03:29.113Z,4.46
2023-03-07T08:05:56.642Z,4.88
2023-03-07T08:08:24.058Z,5.15
2023-03-07T08:10:51.142Z,5.42
2023-03-07T08:13:18.683Z,5.69
2023-03-07T08:15:46.019Z,6.04
2023-03-07T08:18:16.184Z,6.32
2023-03-07T08:20:43.577Z,6.49
2023-03-07T08:23:10.837Z,6.63
2023-03-07T08:25:38.771Z,6.92
2023-03-07T08:28:05.955Z,7.05
2023-03-07T08:30:36.334Z,6.89
2023-03-07T08:33:04.060Z,7.18
2023-03-07T08:35:31.802Z,7.25
2023-03-07T08:38:00.808Z,7.97
2023-03-07T08:40:31.625Z,8.48
2023-03-07T08:43:00.032Z,8.99
2023-03-07T08:45:27.443Z,9.68
2023-03-07T08:47:55.989Z,9.44
2023-03-07T08:50:25.987Z,9.74
2023-03-07T08:52:53.447Z,9.69
2023-03-07T08:55:23.008Z,9.45
2023-03-07T08:57:50.249Z,8.95
2023-03-07T09:00:18.115Z,8.62
2023-03-07T09:02:46.543Z,8.29
2023-03-07T09:05:13.964Z,8.10
2023-03-07T09:07:41.514Z,8.10
2023-03-07T09:10:12.008Z,8.27
2023-03-07T09:12:39.204Z,8.50
2023-03-07T09:15:07.175Z,8.78
2023-03-07T09:17:34.537Z,8.83
2023-03-07T09:20:01.936Z,8.73
2023-03-07T09:22:29.083Z,9.09
2023-03-07T09:24:56.612Z,9.51
2023-03-07T09:27:24.219Z,10.28
2023-03-07T09:29:51.630Z,10.90
2023-03-07T09:32:19.053Z,11.45
2023-03-07T09:34:46.420Z,11.89
2023-03-07T09:37:14.144Z,12.08
2023-03-07T09:39:41.421Z,12.13
2023-03-07T09:42:19.310Z,12.28
2023-03-07T09:45:15.462Z,12.36
2023-03-07T09:48:28.385Z,12.27
2023-03-07T09:51:25.487Z,11.90
2023-03-07T09:54:01.160Z,11.71
2023-03-07T09:56:36.226Z,11.76
2023-03-07T09:59:22.797Z,11.66
2023-03-07T10:02:06.661Z,11.80
2023-03-07T10:04:55.254Z,12.23
2023-03-07T10:07:27.138Z,13.08
2023-03-07T10:10:00.671Z,13.53
2023-03-07T10:12:43.115Z,13.65
2023-03-07T10:15:14.902Z,13.70
2023-03-07T10:18:06.152Z,13.54
2023-03-07T10:20:41.158Z,13.73
2023-03-07T10:23:29.403Z,13.57
2023-03-07T10:26:13.113Z,13.32
2023-03-07T10:28:43.221Z,13.17
2023-03-07T10:31:29.070Z,12.90
2023-03-07T10:33:56.791Z,12.36
2023-03-07T10:36:44.199Z,11.88
2023-03-07T10:39:45.410Z,11.43
2023-03-07T10:42:15.394Z,11.36
2023-03-07T10:44:45.726Z,11.04
2023-03-07T10:47:28.138Z,10.91
2023-03-07T10:50:03.143Z,10.87
2023-03-07T10:52:42.053Z,10.89
2023-03-07T10:55:32.960Z,11.28
2023-03-07T10:58:24.789Z,12.16
2023-03-07T11:01:02.591Z,13.58
2023-03-07T11:03:51.493Z,15.06
2023-03-07T11:06:51.282Z,16.79
2023-03-07T11:09:24.671Z,17.55
2023-03-07T11:12:00.827Z,17.82
2023-03-07T11:14:29.400Z,18.49
2023-03-07T11:17:02.614Z,18.92
2023-03-07T11:19:45.092Z,19.26
2023-03-07T11:22:27.252Z,19.07
2023-03-07T11:24:57.445Z,18.55
2023-03-07T11:27:38.028Z,17.63
2023-03-07T11:30:28.414Z,16.59
2023-03-07T11:33:25.420Z,15.84
2023-03-07T11:36:15.828Z,15.53
2023-03-07T11:39:15.389Z,15.14
2023-03-07T11:41:48.092Z,14.69
2023-03-07T11:44:33.620Z,14.24
2023-03-07T11:47:06.073Z,13.56
2023-03-07T11:49:36.006Z,13.16
2023-03-07T11:52:38.953Z,12.44
2023-03-07T11:55:36.139Z,11.82
2023-03-07T11:58:12.319Z,11.18
2023-03-07T12:01:04.517Z,10.71
2023-03-07T12:03:46.905Z,10.30
2023-03-07T12:06:29.366Z,10.16
2023-03-07T12:09:18.682Z,10.07
2023-03-07T12:12:17.557Z,10.03
2023-03-07T12:15:00.383Z,10.10
2023-03-07T12:17:54.258Z,10.03
2023-03-07T12:20:31.338Z,10.21
2023-03-07T12:23:08.513Z,10.98
2023-03-07T12:25:39.344Z,11.89
2023-03-07T12:28:17.118Z,12.11
2023-03-07T12:31:15.484Z,12.15
2023-03-07T12:34:04.666Z,11.97
2023-03-07T12:36:34.760Z,11.71
2023-03-07T12:39:12.854Z,11.32
2023-03-07T12:41:43.048Z,10.89
2023-03-07T12:44:36.583Z,10.80
2023-03-07T12:47:30.958Z,10.61
2023-03-07T12:50:29.187Z,10.49
2023-03-07T12:53:05.110Z,10.07
2023-03-07T12:55:54.895Z,9.88
2023-03-07T12:58:42.729Z,9.75
2023-03-07T13:01:35.305Z,9.61
2023-03-07T13:04:23.371Z,9.53
2023-03-07T13:06:52.233Z,9.53
2023-03-07T13:09:25.598Z,9.59
2023-03-07T13:12:20.322Z,9.55
2023-03-07T13:15:19.776Z,9.50
2023-03-07T13:17:47.016Z,9.35
2023-03-07T13:20:20.631Z,9.22
2023-03-07T13:22:48.336Z,9.23
2023-03-07T13:25:37.236Z,9.26
2023-03-07T13:28:26.902Z,9.24
2023-03-07T13:31:15.407Z,9.30
2023-03-07T13:33:43.265Z,9.14
2023-03-07T13:36:39.100Z,9.32
2023-03-07T13:39:57.487Z,9.27
2023-03-07T13:42:47.613Z,9.25
2023-03-07T13:45:37.762Z,9.04
2023-03-07T13:48:11.757Z,8.86
2023-03-07T13:50:50.993Z,8.78
2023-03-07T13:53:30.434Z,8.63
2023-03-07T13:56:02.990Z,8.53
2023-03-07T13:59:03.446Z,8.41
2023-03-07T14:01:40.860Z,8.27
2023-03-07T14:04:40.721Z,8.26
2023-03-07T14:07:25.378Z,8.17
2023-03-07T14:09:56.560Z,8.10
2023-03-07T14:12:58.370Z,8.00
2023-03-07T14:15:43.923Z,7.96
2023-03-07T14:18:26.405Z,7.91
2023-03-07T14:21:18.865Z,7.89
2023-03-07T14:24:28.046Z,7.80
2023-03-07T14:27:03.177Z,7.74
2023-03-07T14:29:31.311Z,7.64
2023-03-07T14:32:01.168Z,7.60
2023-03-07T14:34:36.374Z,7.59
2023-03-07T14:37:12.487Z,7.55
2023-03-07T14:40:17.168Z,7.47
2023-03-07T14:43:22.479Z,7.30
2023-03-07T14:46:05.826Z,7.11
2023-03-07T14:48:54.824Z,6.97
2023-03-07T14:51:26.345Z,6.85
2023-03-07T14:53:55.727Z,6.74
2023-03-07T14:56:24.438Z,6.71
2023-03-07T14:58:54.674Z,6.65
2023-03-07T15:01:22.677Z,6.57
2023-03-07T15:03:52.383Z,6.50
2023-03-07T15:06:25.427Z,6.37
2023-03-07T15:08:56.511Z,6.22
2023-03-07T15:11:33.808Z,6.01
2023-03-07T15:14:11.805Z,5.77
2023-03-07T15:16:50.759Z,5.49
2023-03-07T15:19:30.514Z,5.22
2023-03-07T15:22:04.540Z,4.96
2023-03-07T15:24:36.341Z,4.66
2023-03-07T15:27:06.262Z,4.38
2023-03-07T15:29:34.500Z,4.14
2023-03-07T15:32:07.512Z,3.91
2023-03-07T15:34:36.342Z,3.64
2023-03-07T15:37:22.732Z,3.32
2023-03-07T15:40:01.685Z,3.05
2023-03-07T15:42:30.642Z,2.80
2023-03-07T15:45:00.293Z,2.54
2023-03-07T15:47:30.550Z,2.32
2023-03-07T15:50:01.775Z,2.14
2023-03-07T15:52:33.292Z,1.99
2023-03-07T15:55:06.220Z,1.93
2023-03-07T15:57:51.005Z,1.93
2023-03-07T16:00:26.351Z,1.86
2023-03-07T16:02:54.211Z,1.81
2023-03-07T16:05:25.166Z,1.79
2023-03-07T16:07:55.958Z,1.76
2023-03-07T16:10:28.170Z,1.72
2023-03-07T16:12:56.242Z,1.67
2023-03-07T16:15:24.894Z,1.51
2023-03-07T16:17:56.451Z,1.38
2023-03-07T16:20:29.097Z,1.26
2023-03-07T16:22:57.092Z,1.06
2023-03-07T16:25:27.964Z,0.86
2023-03-07T16:27:57.410Z,0.42
2023-03-07T16:30:30.392Z,0.41
2023-03-07T16:32:57.479Z,0.33
2023-03-07T16:35:27.849Z,0.14
2023-03-07T16:37:55.836Z,-0.02
2023-03-07T16:40:26.244Z,-0.12
2023-03-07T16:42:53.644Z,-0.15
2023-03-07T16:45:32.035Z,-0.22
2023-03-07T16:48:02.576Z,-0.26
2023-03-07T16:50:33.645Z,-0.27
2023-03-07T16:53:01.035Z,-0.22
2023-03-07T16:55:28.735Z,-0.12
2023-03-07T16:58:00.945Z,0.00
2023-03-07T17:00:28.930Z,0.12
2023-03-07T17:03:02.281Z,0.27
2023-03-07T17:05:30.666Z,0.40
2023-03-07T17:07:59.450Z,0.53
2023-03-07T17:10:27.130Z,0.65
2023-03-07T17:12:59.467Z,0.77
2023-03-07T17:15:31.057Z,0.89
2023-03-07T17:17:59.654Z,1.00
2023-03-07T17:20:28.024Z,1.06
2023-03-07T17:22:55.559Z,1.14
2023-03-07T17:25:23.875Z,1.22
2023-03-07T17:28:15.907Z,1.29
2023-03-07T17:30:45.880Z,1.36
2023-03-07T17:33:15.112Z,1.39
2023-03-07T17:35:42.714Z,1.40
2023-03-07T17:38:10.242Z,1.43
2023-03-07T17:40:38.801Z,1.46
2023-03-07T17:43:08.390Z,1.47
2023-03-07T17:45:36.053Z,1.51
2023-03-07T17:48:03.588Z,1.47
2023-03-07T17:50:30.837Z,1.55
2023-03-07T17:52:58.718Z,1.56
2023-03-07T17:55:26.300Z,1.59
2023-03-07T17:57:53.942Z,1.62
2023-03-07T18:00:22.061Z,1.64
2023-03-07T18:02:49.832Z,1.63
2023-03-07T18:05:19.562Z,1.65
2023-03-07T18:07:47.521Z,1.60
2023-03-07T18:10:14.646Z,1.56
2023-03-07T18:12:42.726Z,1.52
2023-03-07T18:15:14.815Z,1.49
2023-03-07T18:17:48.355Z,1.42
2023-03-07T18:20:19.532Z,1.30
2023-03-07T18:22:46.981Z,1.18
2023-03-07T18:25:16.216Z,1.01
2023-03-07T18:27:43.996Z,0.87
2023-03-07T18:30:12.653Z,0.74
2023-03-07T18:32:39.917Z,0.61
2023-03-07T18:35:08.049Z,0.50
2023-03-07T18:37:36.864Z,0.37
2023-03-07T18:40:06.572Z,0.29
2023-03-07T18:42:39.512Z,0.22
2023-03-07T18:45:07.962Z,0.16
2023-03-07T18:47:35.172Z,0.12
2023-03-07T18:50:02.474Z,0.10
2023-03-07T18:52:30.311Z,0.10
2023-03-07T18:54:57.711Z,0.09
2023-03-07T18:57:25.122Z,0.14
2023-03-07T18:59:52.668Z,0.16
2023-03-07T19:02:20.119Z,0.20
2023-03-07T19:04:47.492Z,0.16
2023-03-07T19:07:15.163Z,0.15
2023-03-07T19:09:48.429Z,0.17
2023-03-07T19:12:15.768Z,0.13
2023-03-07T19:14:43.057Z,0.10
2023-03-07T19:17:10.846Z,-0.02
2023-03-07T19:19:38.248Z,-0.12
2023-03-07T19:22:06.049Z,-0.27
2023-03-07T19:24:33.494Z,-0.36
2023-03-07T19:27:01.188Z,-0.44
2023-03-07T19:29:28.702Z,-0.56
2023-03-07T19:31:56.972Z,-0.63
2023-03-07T19:34:24.035Z,-0.73
2023-03-07T19:36:52.138Z,-0.79
2023-03-07T19:39:20.725Z,-0.90
2023-03-07T19:41:48.425Z,-0.96
2023-03-07T19:44:16.847Z,-1.02
2023-03-07T19:46:46.783Z,-1.10
2023-03-07T19:49:16.109Z,-1.16
2023-03-07T19:51:46.008Z,-1.18
2023-03-07T19:54:14.602Z,-1.22
2023-03-07T19:56:44.679Z,-1.28
2023-03-07T19:59:12.908Z,-1.32
2023-03-07T20:01:40.829Z,-1.34
2023-03-07T20:04:10.650Z,-1.41
2023-03-07T20:06:39.550Z,-1.40
2023-03-07T20:09:07.201Z,-1.41
2023-03-07T20:11:39.747Z,-1.41
2023-03-07T20:14:07.626Z,-1.42
2023-03-07T20:16:35.057Z,-1.41
2023-03-07T20:19:05.541Z,-1.44
2023-03-07T20:21:33.843Z,-1.45
2023-03-07T20:24:01.840Z,-1.47
2023-03-07T20:26:35.164Z,-1.48
2023-03-07T20:29:04.318Z,-1.50
2023-03-07T20:31:32.818Z,-1.47
2023-03-07T20:34:01.839Z,-1.44
2023-03-07T20:36:33.053Z,-1.45
2023-03-07T20:39:02.441Z,-1.47
2023-03-07T20:41:32.414Z,-1.47
2023-03-07T20:44:02.683Z,-1.47
2023-03-07T20:46:31.372Z,-1.49
2023-03-07T20:49:00.955Z,-1.49
2023-03-07T20:51:31.414Z,-1.47
2023-03-07T20:54:00.325Z,-1.49
2023-03-07T20:56:29.788Z,-1.50
2023-03-07T20:58:58.038Z,-1.55
2023-03-07T21:01:30.700Z,-1.59
2023-03-07T21:04:15.410Z,-1.61
2023-03-07T21:06:44.440Z,-1.63
2023-03-07T21:09:15.632Z,-1.66
2023-03-07T21:11:45.496Z,-1.69
2023-03-07T21:14:17.528Z,-1.67
2023-03-07T21:16:48.445Z,-1.69
2023-03-07T21:19:16.265Z,-1.68
2023-03-07T21:21:43.873Z,-1.70
2023-03-07T21:24:12.948Z,-1.68
2023-03-07T21:26:40.580Z,-1.67
2023-03-07T21:29:09.822Z,-1.66
2023-03-07T21:31:37.616Z,-1.62
2023-03-07T21:34:08.193Z,-1.62
2023-03-07T21:36:35.688Z,-1.63
2023-03-07T21:39:08.269Z,-1.62
2023-03-07T21:41:36.779Z,-1.56
2023-03-07T21:44:03.928Z,-1.56
2023-03-07T21:46:31.496Z,-1.51
2023-03-07T21:48:59.959Z,-1.50
2023-03-07T21:51:27.460Z,-1.49
2023-03-07T21:53:54.754Z,-1.48
2023-03-07T21:56:24.053Z,-1.44
2023-03-07T21:58:52.167Z,-1.43
2023-03-07T22:01:26.327Z,-1.42
2023-03-07T22:03:55.929Z,-1.41
2023-03-07T22:06:23.787Z,-1.39
2023-03-07T22:08:50.938Z,-1.37
2023-03-07T22:11:17.966Z,-1.33
2023-03-07T22:13:45.790Z,-1.31
2023-03-07T22:16:18.245Z,-1.27
2023-03-07T22:18:45.729Z,-1.27
2023-03-07T22:21:15.261Z,-1.18
2023-03-07T22:23:43.092Z,-1.15
2023-03-07T22:26:12.472Z,-1.13
2023-03-07T22:28:43.365Z,-1.06
2023-03-07T22:31:12.888Z,-1.03
2023-03-07T22:33:41.692Z,-0.95
2023-03-07T22:36:13.002Z,-0.93
2023-03-07T22:38:41.938Z,-0.95
2023-03-07T22:41:15.710Z,-0.94
2023-03-07T22:43:43.455Z,-0.92
2023-03-07T22:46:11.433Z,-0.89
2023-03-07T22:48:39.388Z,-0.92
2023-03-07T22:51:17.859Z,-0.91
2023-03-07T22:53:45.684Z,-0.90
2023-03-07T22:56:16.570Z,-0.87
2023-03-07T22:58:44.083Z,-0.83
2023-03-07T23:01:14.795Z,-0.82
2023-03-07T23:03:42.640Z,-0.80
2023-03-07T23:06:10.173Z,-0.78
2023-03-07T23:08:37.345Z,-0.78
2023-03-07T23:11:09.238Z,-0.79
2023-03-07T23:13:37.025Z,-0.77
2023-03-07T23:16:10.270Z,-0.79
2023-03-07T23:18:38.357Z,-0.79
2023-03-07T23:21:07.410Z,-0.80
2023-03-07T23:23:35.010Z,-0.77
2023-03-07T23:26:02.592Z,-0.71
2023-03-07T23:28:30.148Z,-0.65
2023-03-07T23:30:57.640Z,-0.57
2023-03-07T23:33:25.244Z,-0.46
2023-03-07T23:35:52.747Z,-0.43
2023-03-07T23:38:20.977Z,-0.37
2023-03-07T23:40:48.401Z,-0.24
2023-03-07T23:43:15.679Z,-0.11
2023-03-07T23:45:42.924Z,-0.04
2023-03-07T23:48:13.765Z,0.03
2023-03-07T23:50:41.212Z,0.11
2023-03-07T23:53:08.550Z,0.16
2023-03-07T23:55:36.116Z,0.27
2023-03-07T23:58:05.429Z,0.29
